HTIR

Iringa Airport

Nduli, Tanzania
METAR HTIR 190600Z 18005KT 9999 FEW017 16/08 Q1027
Observed Flight Rules
Jul-19 @ 06:00 UTC (an hour ago) Visual Flight Rules
Wind Visibility Clouds
180° at 5 knots 10,000+ meters
  • Few at 1,700' AGL
Temperatures Readings
Current 16°C / 61°F
Dewpoint 8°C / 46°F
Humidity 59%
Altimeter 30.32" Hg
Pressure 1027 hPa
Elevation 1428
METAR HTIR 190600Z 18005KT 9999 FEW017 16/08 Q1027
Observed Flight Rules
Jul-19 @ 06:00 UTC
(an hour ago)
VFR
Wind Visibility
180° at 5 knots 10,000+ meters
Clouds
  • Few at 1,700' AGL
Temperature Dewpoint
16°C / 61°F 8°C / 46°F
Humidity Altimeter Pressure
59% 30.32" Hg 1027 hPa